sensor_id;sensor_type;location;lat;lon;timestamp;P1;durP1;ratioP1;P2;durP2;ratioP2
15831;SDS011;8016;49.928;9.372;2022-07-21T00:02:09;18.13;;;16.53;;
15831;SDS011;8016;49.928;9.372;2022-07-21T00:04:35;16.77;;;15.23;;
15831;SDS011;8016;49.928;9.372;2022-07-21T00:07:01;19.37;;;17.67;;
15831;SDS011;8016;49.928;9.372;2022-07-21T00:09:27;19.37;;;17.67;;
15831;SDS011;8016;49.928;9.372;2022-07-21T00:11:53;19.13;;;17.43;;
15831;SDS011;8016;49.928;9.372;2022-07-21T00:14:19;18.60;;;17.13;;
15831;SDS011;8016;49.928;9.372;2022-07-21T00:16:45;19.93;;;17.83;;
15831;SDS011;8016;49.928;9.372;2022-07-21T00:19:11;18.53;;;16.77;;
15831;SDS011;8016;49.928;9.372;2022-07-21T00:21:38;18.70;;;16.87;;
15831;SDS011;8016;49.928;9.372;2022-07-21T00:24:04;19.07;;;17.47;;
15831;SDS011;8016;49.928;9.372;2022-07-21T00:26:30;19.47;;;17.77;;
15831;SDS011;8016;49.928;9.372;2022-07-21T00:28:56;20.07;;;18.13;;
15831;SDS011;8016;49.928;9.372;2022-07-21T00:31:22;19.07;;;17.47;;
15831;SDS011;8016;49.928;9.372;2022-07-21T00:33:48;19.87;;;18.07;;
15831;SDS011;8016;49.928;9.372;2022-07-21T00:36:16;18.83;;;17.33;;
15831;SDS011;8016;49.928;9.372;2022-07-21T00:38:42;18.63;;;17.03;;
15831;SDS011;8016;49.928;9.372;2022-07-21T00:41:08;16.93;;;15.43;;
15831;SDS011;8016;49.928;9.372;2022-07-21T00:43:34;16.97;;;15.37;;
15831;SDS011;8016;49.928;9.372;2022-07-21T00:46:00;16.53;;;15.13;;
15831;SDS011;8016;49.928;9.372;2022-07-21T00:48:26;16.93;;;15.43;;
15831;SDS011;8016;49.928;9.372;2022-07-21T00:50:52;16.10;;;14.70;;
15831;SDS011;8016;49.928;9.372;2022-07-21T00:53:18;15.93;;;14.37;;
15831;SDS011;8016;49.928;9.372;2022-07-21T00:55:45;16.20;;;14.63;;
15831;SDS011;8016;49.928;9.372;2022-07-21T00:58:11;16.87;;;15.37;;
15831;SDS011;8016;49.928;9.372;2022-07-21T01:00:37;16.23;;;14.93;;
15831;SDS011;8016;49.928;9.372;2022-07-21T01:03:04;16.90;;;15.50;;
15831;SDS011;8016;49.928;9.372;2022-07-21T01:05:30;16.93;;;15.43;;
15831;SDS011;8016;49.928;9.372;2022-07-21T01:07:56;16.30;;;15.00;;
15831;SDS011;8016;49.928;9.372;2022-07-21T01:10:28;16.17;;;14.73;;
15831;SDS011;8016;49.928;9.372;2022-07-21T01:12:54;15.37;;;14.17;;
15831;SDS011;8016;49.928;9.372;2022-07-21T01:15:20;15.17;;;13.67;;
15831;SDS011;8016;49.928;9.372;2022-07-21T01:17:47;14.73;;;13.43;;
15831;SDS011;8016;49.928;9.372;2022-07-21T01:20:14;14.50;;;13.20;;
15831;SDS011;8016;49.928;9.372;2022-07-21T01:22:41;14.23;;;12.93;;
15831;SDS011;8016;49.928;9.372;2022-07-21T01:25:07;15.53;;;14.03;;
15831;SDS011;8016;49.928;9.372;2022-07-21T01:27:33;14.47;;;13.00;;
15831;SDS011;8016;49.928;9.372;2022-07-21T01:29:59;14.87;;;13.47;;
15831;SDS011;8016;49.928;9.372;2022-07-21T01:32:25;15.47;;;13.97;;
15831;SDS011;8016;49.928;9.372;2022-07-21T01:34:52;15.40;;;14.00;;
15831;SDS011;8016;49.928;9.372;2022-07-21T01:37:21;15.67;;;14.17;;
15831;SDS011;8016;49.928;9.372;2022-07-21T01:39:48;15.00;;;13.43;;
15831;SDS011;8016;49.928;9.372;2022-07-21T01:42:33;14.47;;;12.97;;
15831;SDS011;8016;49.928;9.372;2022-07-21T01:44:59;14.93;;;13.43;;
15831;SDS011;8016;49.928;9.372;2022-07-21T01:47:25;15.27;;;13.77;;
15831;SDS011;8016;49.928;9.372;2022-07-21T01:49:52;14.60;;;13.30;;
15831;SDS011;8016;49.928;9.372;2022-07-21T01:52:18;15.17;;;13.83;;
15831;SDS011;8016;49.928;9.372;2022-07-21T01:54:44;14.67;;;13.33;;
15831;SDS011;8016;49.928;9.372;2022-07-21T01:57:10;14.33;;;13.00;;
15831;SDS011;8016;49.928;9.372;2022-07-21T01:59:36;13.97;;;12.67;;
15831;SDS011;8016;49.928;9.372;2022-07-21T02:02:03;14.00;;;12.70;;
15831;SDS011;8016;49.928;9.372;2022-07-21T02:04:29;13.37;;;12.17;;
15831;SDS011;8016;49.928;9.372;2022-07-21T02:06:55;14.10;;;12.90;;
15831;SDS011;8016;49.928;9.372;2022-07-21T02:09:21;13.43;;;12.10;;
15831;SDS011;8016;49.928;9.372;2022-07-21T02:11:47;12.07;;;10.97;;
15831;SDS011;8016;49.928;9.372;2022-07-21T02:14:13;12.83;;;11.50;;
15831;SDS011;8016;49.928;9.372;2022-07-21T02:16:39;12.17;;;11.03;;
15831;SDS011;8016;49.928;9.372;2022-07-21T02:19:05;12.50;;;11.37;;
15831;SDS011;8016;49.928;9.372;2022-07-21T02:21:33;12.00;;;10.97;;
15831;SDS011;8016;49.928;9.372;2022-07-21T02:23:59;12.33;;;11.30;;
15831;SDS011;8016;49.928;9.372;2022-07-21T02:26:25;12.43;;;10.90;;
15831;SDS011;8016;49.928;9.372;2022-07-21T02:28:51;12.20;;;11.17;;
15831;SDS011;8016;49.928;9.372;2022-07-21T02:31:17;11.87;;;10.80;;
15831;SDS011;8016;49.928;9.372;2022-07-21T02:33:43;12.73;;;11.57;;
15831;SDS011;8016;49.928;9.372;2022-07-21T02:36:09;12.83;;;11.70;;
15831;SDS011;8016;49.928;9.372;2022-07-21T02:38:35;12.70;;;11.60;;
15831;SDS011;8016;49.928;9.372;2022-07-21T02:41:02;12.43;;;11.40;;
15831;SDS011;8016;49.928;9.372;2022-07-21T02:43:28;13.83;;;12.67;;
15831;SDS011;8016;49.928;9.372;2022-07-21T02:45:54;14.30;;;12.90;;
15831;SDS011;8016;49.928;9.372;2022-07-21T02:48:20;14.07;;;12.87;;
15831;SDS011;8016;49.928;9.372;2022-07-21T02:50:46;15.53;;;14.17;;
15831;SDS011;8016;49.928;9.372;2022-07-21T02:53:13;15.80;;;14.30;;
15831;SDS011;8016;49.928;9.372;2022-07-21T02:55:39;16.37;;;14.77;;
15831;SDS011;8016;49.928;9.372;2022-07-21T02:58:06;15.63;;;14.07;;
15831;SDS011;8016;49.928;9.372;2022-07-21T03:00:33;15.33;;;13.93;;
15831;SDS011;8016;49.928;9.372;2022-07-21T03:02:59;16.27;;;14.77;;
15831;SDS011;8016;49.928;9.372;2022-07-21T03:05:25;16.97;;;15.27;;
15831;SDS011;8016;49.928;9.372;2022-07-21T03:07:51;17.63;;;15.93;;
15831;SDS011;8016;49.928;9.372;2022-07-21T03:10:17;17.60;;;15.93;;
15831;SDS011;8016;49.928;9.372;2022-07-21T03:12:43;16.70;;;15.30;;
15831;SDS011;8016;49.928;9.372;2022-07-21T03:15:09;17.80;;;15.90;;
15831;SDS011;8016;49.928;9.372;2022-07-21T03:17:35;16.43;;;14.93;;
15831;SDS011;8016;49.928;9.372;2022-07-21T03:20:01;15.43;;;14.13;;
15831;SDS011;8016;49.928;9.372;2022-07-21T03:22:28;16.80;;;15.13;;
15831;SDS011;8016;49.928;9.372;2022-07-21T03:24:54;16.73;;;15.10;;
15831;SDS011;8016;49.928;9.372;2022-07-21T03:27:20;16.57;;;14.97;;
15831;SDS011;8016;49.928;9.372;2022-07-21T03:29:46;16.90;;;15.37;;
15831;SDS011;8016;49.928;9.372;2022-07-21T03:32:12;16.20;;;14.70;;
15831;SDS011;8016;49.928;9.372;2022-07-21T03:34:38;16.53;;;14.97;;
15831;SDS011;8016;49.928;9.372;2022-07-21T03:37:03;17.93;;;16.43;;
15831;SDS011;8016;49.928;9.372;2022-07-21T03:39:29;18.07;;;16.40;;
15831;SDS011;8016;49.928;9.372;2022-07-21T03:41:55;17.20;;;15.73;;
15831;SDS011;8016;49.928;9.372;2022-07-21T03:44:21;17.83;;;16.13;;
15831;SDS011;8016;49.928;9.372;2022-07-21T03:46:47;18.33;;;16.73;;
15831;SDS011;8016;49.928;9.372;2022-07-21T03:49:14;19.30;;;17.60;;
15831;SDS011;8016;49.928;9.372;2022-07-21T03:51:40;19.53;;;17.80;;
15831;SDS011;8016;49.928;9.372;2022-07-21T03:54:06;18.83;;;17.23;;
15831;SDS011;8016;49.928;9.372;2022-07-21T03:56:32;20.70;;;18.63;;
15831;SDS011;8016;49.928;9.372;2022-07-21T03:58:58;21.57;;;19.47;;
15831;SDS011;8016;49.928;9.372;2022-07-21T04:01:24;21.23;;;19.23;;
15831;SDS011;8016;49.928;9.372;2022-07-21T04:03:50;21.43;;;19.43;;
15831;SDS011;8016;49.928;9.372;2022-07-21T04:06:16;20.30;;;18.40;;
15831;SDS011;8016;49.928;9.372;2022-07-21T04:08:42;21.30;;;19.40;;
15831;SDS011;8016;49.928;9.372;2022-07-21T04:11:08;21.83;;;19.73;;
15831;SDS011;8016;49.928;9.372;2022-07-21T04:13:34;21.37;;;19.37;;
15831;SDS011;8016;49.928;9.372;2022-07-21T04:16:00;20.33;;;18.53;;
15831;SDS011;8016;49.928;9.372;2022-07-21T04:18:26;20.80;;;18.90;;
15831;SDS011;8016;49.928;9.372;2022-07-21T04:20:52;20.83;;;18.57;;
15831;SDS011;8016;49.928;9.372;2022-07-21T04:23:18;19.10;;;17.20;;
15831;SDS011;8016;49.928;9.372;2022-07-21T04:25:44;17.97;;;16.43;;
15831;SDS011;8016;49.928;9.372;2022-07-21T04:28:10;18.00;;;16.20;;
15831;SDS011;8016;49.928;9.372;2022-07-21T04:30:36;16.40;;;14.77;;
15831;SDS011;8016;49.928;9.372;2022-07-21T04:33:02;16.40;;;14.43;;
15831;SDS011;8016;49.928;9.372;2022-07-21T04:35:28;16.43;;;15.00;;
15831;SDS011;8016;49.928;9.372;2022-07-21T04:37:54;15.47;;;14.17;;
15831;SDS011;8016;49.928;9.372;2022-07-21T04:40:20;18.37;;;14.03;;
15831;SDS011;8016;49.928;9.372;2022-07-21T04:42:46;14.87;;;13.47;;
15831;SDS011;8016;49.928;9.372;2022-07-21T04:45:13;16.23;;;14.70;;
15831;SDS011;8016;49.928;9.372;2022-07-21T04:50:09;16.10;;;13.43;;
15831;SDS011;8016;49.928;9.372;2022-07-21T04:52:35;14.70;;;13.30;;
15831;SDS011;8016;49.928;9.372;2022-07-21T04:55:01;15.07;;;13.67;;
15831;SDS011;8016;49.928;9.372;2022-07-21T04:57:27;15.23;;;13.10;;
15831;SDS011;8016;49.928;9.372;2022-07-21T04:59:53;14.33;;;13.03;;
15831;SDS011;8016;49.928;9.372;2022-07-21T05:02:19;14.40;;;13.00;;
15831;SDS011;8016;49.928;9.372;2022-07-21T05:04:45;13.27;;;12.10;;
15831;SDS011;8016;49.928;9.372;2022-07-21T05:07:11;14.23;;;12.87;;
15831;SDS011;8016;49.928;9.372;2022-07-21T05:09:37;12.97;;;11.70;;
15831;SDS011;8016;49.928;9.372;2022-07-21T05:12:03;13.00;;;11.87;;
15831;SDS011;8016;49.928;9.372;2022-07-21T05:14:29;13.30;;;11.93;;
15831;SDS011;8016;49.928;9.372;2022-07-21T05:16:55;13.43;;;11.87;;
15831;SDS011;8016;49.928;9.372;2022-07-21T05:19:21;12.43;;;11.13;;
15831;SDS011;8016;49.928;9.372;2022-07-21T05:21:47;12.60;;;11.50;;
15831;SDS011;8016;49.928;9.372;2022-07-21T05:24:13;11.53;;;10.53;;
15831;SDS011;8016;49.928;9.372;2022-07-21T05:26:39;12.03;;;10.93;;
15831;SDS011;8016;49.928;9.372;2022-07-21T05:29:05;11.43;;;10.23;;
15831;SDS011;8016;49.928;9.372;2022-07-21T05:31:31;10.10;;;9.20;;
15831;SDS011;8016;49.928;9.372;2022-07-21T05:33:57;9.97;;;8.97;;
15831;SDS011;8016;49.928;9.372;2022-07-21T05:36:23;10.23;;;9.33;;
15831;SDS011;8016;49.928;9.372;2022-07-21T05:38:49;9.17;;;8.40;;
15831;SDS011;8016;49.928;9.372;2022-07-21T05:41:15;9.77;;;8.87;;
15831;SDS011;8016;49.928;9.372;2022-07-21T05:43:41;9.80;;;8.90;;
15831;SDS011;8016;49.928;9.372;2022-07-21T05:46:08;9.63;;;8.83;;
15831;SDS011;8016;49.928;9.372;2022-07-21T05:48:33;9.80;;;8.80;;
15831;SDS011;8016;49.928;9.372;2022-07-21T05:50:59;9.57;;;8.67;;
15831;SDS011;8016;49.928;9.372;2022-07-21T05:53:25;9.80;;;8.80;;
15831;SDS011;8016;49.928;9.372;2022-07-21T05:55:51;9.30;;;8.50;;
15831;SDS011;8016;49.928;9.372;2022-07-21T05:58:17;13.00;;;8.83;;
15831;SDS011;8016;49.928;9.372;2022-07-21T06:00:47;9.40;;;8.60;;
15831;SDS011;8016;49.928;9.372;2022-07-21T06:03:33;9.33;;;8.00;;
15831;SDS011;8016;49.928;9.372;2022-07-21T06:05:59;10.53;;;8.90;;
15831;SDS011;8016;49.928;9.372;2022-07-21T06:08:25;8.27;;;7.57;;
15831;SDS011;8016;49.928;9.372;2022-07-21T06:10:51;8.97;;;8.20;;
15831;SDS011;8016;49.928;9.372;2022-07-21T06:13:17;10.50;;;8.77;;
15831;SDS011;8016;49.928;9.372;2022-07-21T06:15:43;9.03;;;8.13;;
15831;SDS011;8016;49.928;9.372;2022-07-21T06:18:08;8.82;;;8.02;;
15831;SDS011;8016;49.928;9.372;2022-07-21T06:20:35;9.13;;;7.40;;
15831;SDS011;8016;49.928;9.372;2022-07-21T06:23:01;8.90;;;7.70;;
15831;SDS011;8016;49.928;9.372;2022-07-21T06:25:27;8.03;;;7.33;;
15831;SDS011;8016;49.928;9.372;2022-07-21T06:27:53;10.15;;;7.80;;
15831;SDS011;8016;49.928;9.372;2022-07-21T06:30:19;7.27;;;6.77;;
15831;SDS011;8016;49.928;9.372;2022-07-21T06:32:45;9.57;;;7.50;;
15831;SDS011;8016;49.928;9.372;2022-07-21T06:35:11;8.77;;;6.97;;
15831;SDS011;8016;49.928;9.372;2022-07-21T06:37:37;8.00;;;6.78;;
15831;SDS011;8016;49.928;9.372;2022-07-21T06:40:03;7.35;;;6.65;;
15831;SDS011;8016;49.928;9.372;2022-07-21T06:42:29;7.80;;;7.05;;
15831;SDS011;8016;49.928;9.372;2022-07-21T06:44:55;7.90;;;7.10;;
15831;SDS011;8016;49.928;9.372;2022-07-21T06:47:21;8.57;;;7.03;;
15831;SDS011;8016;49.928;9.372;2022-07-21T06:49:47;6.73;;;6.13;;
15831;SDS011;8016;49.928;9.372;2022-07-21T06:52:13;6.90;;;6.23;;
15831;SDS011;8016;49.928;9.372;2022-07-21T06:54:39;7.47;;;6.47;;
15831;SDS011;8016;49.928;9.372;2022-07-21T06:57:05;7.33;;;6.53;;
15831;SDS011;8016;49.928;9.372;2022-07-21T06:59:31;8.73;;;6.63;;
15831;SDS011;8016;49.928;9.372;2022-07-21T07:01:57;7.80;;;6.65;;
15831;SDS011;8016;49.928;9.372;2022-07-21T07:04:24;6.75;;;6.05;;
15831;SDS011;8016;49.928;9.372;2022-07-21T07:06:50;7.20;;;6.50;;
15831;SDS011;8016;49.928;9.372;2022-07-21T07:09:17;6.80;;;6.07;;
15831;SDS011;8016;49.928;9.372;2022-07-21T07:11:43;6.20;;;5.73;;
15831;SDS011;8016;49.928;9.372;2022-07-21T07:14:11;7.30;;;6.27;;
15831;SDS011;8016;49.928;9.372;2022-07-21T07:16:37;6.40;;;5.77;;
15831;SDS011;8016;49.928;9.372;2022-07-21T07:19:03;6.87;;;5.50;;
15831;SDS011;8016;49.928;9.372;2022-07-21T07:21:29;7.10;;;5.50;;
15831;SDS011;8016;49.928;9.372;2022-07-21T07:23:55;8.73;;;6.07;;
15831;SDS011;8016;49.928;9.372;2022-07-21T07:26:21;7.37;;;5.97;;
15831;SDS011;8016;49.928;9.372;2022-07-21T07:28:47;6.47;;;5.82;;
15831;SDS011;8016;49.928;9.372;2022-07-21T07:31:13;6.50;;;5.43;;
15831;SDS011;8016;49.928;9.372;2022-07-21T07:33:39;6.97;;;5.63;;
15831;SDS011;8016;49.928;9.372;2022-07-21T07:36:05;7.13;;;6.50;;
15831;SDS011;8016;49.928;9.372;2022-07-21T07:38:35;6.77;;;6.07;;
15831;SDS011;8016;49.928;9.372;2022-07-21T07:41:01;9.37;;;6.90;;
15831;SDS011;8016;49.928;9.372;2022-07-21T07:43:27;7.23;;;6.53;;
15831;SDS011;8016;49.928;9.372;2022-07-21T07:45:56;7.97;;;6.93;;
15831;SDS011;8016;49.928;9.372;2022-07-21T07:48:22;10.20;;;6.75;;
15831;SDS011;8016;49.928;9.372;2022-07-21T07:50:48;7.68;;;7.07;;
15831;SDS011;8016;49.928;9.372;2022-07-21T07:53:14;7.43;;;6.73;;
15831;SDS011;8016;49.928;9.372;2022-07-21T07:55:40;9.17;;;6.30;;
15831;SDS011;8016;49.928;9.372;2022-07-21T07:58:06;7.70;;;6.90;;
15831;SDS011;8016;49.928;9.372;2022-07-21T08:00:32;7.25;;;6.55;;
15831;SDS011;8016;49.928;9.372;2022-07-21T08:02:58;7.85;;;7.20;;
15831;SDS011;8016;49.928;9.372;2022-07-21T08:05:24;8.77;;;7.30;;
15831;SDS011;8016;49.928;9.372;2022-07-21T08:07:50;7.72;;;7.03;;
15831;SDS011;8016;49.928;9.372;2022-07-21T08:10:16;8.30;;;7.57;;
15831;SDS011;8016;49.928;9.372;2022-07-21T08:12:42;8.77;;;7.88;;
15831;SDS011;8016;49.928;9.372;2022-07-21T08:15:08;7.88;;;7.07;;
15831;SDS011;8016;49.928;9.372;2022-07-21T08:17:34;8.27;;;7.47;;
15831;SDS011;8016;49.928;9.372;2022-07-21T08:20:00;9.13;;;7.10;;
15831;SDS011;8016;49.928;9.372;2022-07-21T08:22:26;7.07;;;6.40;;
15831;SDS011;8016;49.928;9.372;2022-07-21T08:24:52;7.85;;;6.38;;
15831;SDS011;8016;49.928;9.372;2022-07-21T08:27:19;7.82;;;7.13;;
15831;SDS011;8016;49.928;9.372;2022-07-21T08:29:45;8.13;;;7.32;;
15831;SDS011;8016;49.928;9.372;2022-07-21T08:32:11;8.18;;;7.38;;
15831;SDS011;8016;49.928;9.372;2022-07-21T08:34:37;8.50;;;6.88;;
15831;SDS011;8016;49.928;9.372;2022-07-21T08:37:03;6.28;;;5.53;;
15831;SDS011;8016;49.928;9.372;2022-07-21T08:39:29;6.55;;;5.88;;
15831;SDS011;8016;49.928;9.372;2022-07-21T08:41:55;6.25;;;4.95;;
15831;SDS011;8016;49.928;9.372;2022-07-21T08:44:22;6.40;;;5.30;;
15831;SDS011;8016;49.928;9.372;2022-07-21T08:46:49;5.68;;;5.18;;
15831;SDS011;8016;49.928;9.372;2022-07-21T08:49:15;5.13;;;4.63;;
15831;SDS011;8016;49.928;9.372;2022-07-21T08:51:45;5.32;;;4.82;;
15831;SDS011;8016;49.928;9.372;2022-07-21T08:54:11;5.07;;;4.57;;
15831;SDS011;8016;49.928;9.372;2022-07-21T08:56:37;6.13;;;5.03;;
15831;SDS011;8016;49.928;9.372;2022-07-21T08:59:03;4.85;;;4.43;;
15831;SDS011;8016;49.928;9.372;2022-07-21T09:01:30;6.07;;;4.95;;
15831;SDS011;8016;49.928;9.372;2022-07-21T09:04:00;5.65;;;5.15;;
15831;SDS011;8016;49.928;9.372;2022-07-21T09:06:49;7.85;;;5.00;;
15831;SDS011;8016;49.928;9.372;2022-07-21T09:09:18;6.50;;;4.73;;
15831;SDS011;8016;49.928;9.372;2022-07-21T09:11:45;5.88;;;5.20;;
15831;SDS011;8016;49.928;9.372;2022-07-21T09:14:13;5.60;;;4.87;;
15831;SDS011;8016;49.928;9.372;2022-07-21T09:16:45;4.85;;;4.43;;
15831;SDS011;8016;49.928;9.372;2022-07-21T09:19:19;4.88;;;4.47;;
15831;SDS011;8016;49.928;9.372;2022-07-21T09:21:46;5.03;;;4.53;;
15831;SDS011;8016;49.928;9.372;2022-07-21T09:24:16;8.18;;;5.13;;
15831;SDS011;8016;49.928;9.372;2022-07-21T09:27:05;5.00;;;4.10;;
15831;SDS011;8016;49.928;9.372;2022-07-21T09:29:45;5.70;;;4.88;;
15831;SDS011;8016;49.928;9.372;2022-07-21T09:32:28;4.88;;;4.32;;
15831;SDS011;8016;49.928;9.372;2022-07-21T09:37:21;8.25;;;4.60;;
15831;SDS011;8016;49.928;9.372;2022-07-21T09:44:47;5.22;;;4.72;;
15831;SDS011;8016;49.928;9.372;2022-07-21T09:47:13;4.18;;;3.45;;
15831;SDS011;8016;49.928;9.372;2022-07-21T09:49:40;4.95;;;3.72;;
15831;SDS011;8016;49.928;9.372;2022-07-21T09:52:19;5.13;;;3.60;;
15831;SDS011;8016;49.928;9.372;2022-07-21T09:54:46;4.18;;;3.78;;
15831;SDS011;8016;49.928;9.372;2022-07-21T09:57:12;3.70;;;3.40;;
15831;SDS011;8016;49.928;9.372;2022-07-21T09:59:39;6.28;;;3.35;;
15831;SDS011;8016;49.928;9.372;2022-07-21T10:02:05;3.95;;;3.60;;
15831;SDS011;8016;49.928;9.372;2022-07-21T10:04:31;5.05;;;3.60;;
15831;SDS011;8016;49.928;9.372;2022-07-21T10:06:59;5.40;;;3.90;;
15831;SDS011;8016;49.928;9.372;2022-07-21T10:09:27;4.13;;;3.65;;
15831;SDS011;8016;49.928;9.372;2022-07-21T10:11:53;4.68;;;4.28;;
15831;SDS011;8016;49.928;9.372;2022-07-21T10:14:19;4.03;;;3.72;;
15831;SDS011;8016;49.928;9.372;2022-07-21T10:16:45;5.75;;;4.28;;
15831;SDS011;8016;49.928;9.372;2022-07-21T10:19:17;4.38;;;4.07;;
15831;SDS011;8016;49.928;9.372;2022-07-21T10:24:17;7.47;;;4.00;;
15831;SDS011;8016;49.928;9.372;2022-07-21T10:27:00;5.70;;;4.13;;
15831;SDS011;8016;49.928;9.372;2022-07-21T10:32:11;3.95;;;3.60;;
15831;SDS011;8016;49.928;9.372;2022-07-21T10:34:37;4.22;;;3.83;;
15831;SDS011;8016;49.928;9.372;2022-07-21T10:37:03;4.63;;;3.88;;
15831;SDS011;8016;49.928;9.372;2022-07-21T10:39:30;4.78;;;4.05;;
15831;SDS011;8016;49.928;9.372;2022-07-21T10:41:58;5.32;;;3.75;;
15831;SDS011;8016;49.928;9.372;2022-07-21T10:49:48;4.13;;;3.60;;
15831;SDS011;8016;49.928;9.372;2022-07-21T10:58:10;5.30;;;4.40;;
15831;SDS011;8016;49.928;9.372;2022-07-21T11:00:37;4.45;;;4.15;;
15831;SDS011;8016;49.928;9.372;2022-07-21T11:03:12;7.78;;;4.80;;
15831;SDS011;8016;49.928;9.372;2022-07-21T11:05:38;4.80;;;4.40;;
15831;SDS011;8016;49.928;9.372;2022-07-21T11:08:29;7.53;;;5.43;;
15831;SDS011;8016;49.928;9.372;2022-07-21T11:10:58;5.38;;;4.50;;
15831;SDS011;8016;49.928;9.372;2022-07-21T11:13:56;4.95;;;4.13;;
15831;SDS011;8016;49.928;9.372;2022-07-21T11:16:17;4.78;;;4.38;;
15831;SDS011;8016;49.928;9.372;2022-07-21T11:18:43;5.22;;;4.38;;
15831;SDS011;8016;49.928;9.372;2022-07-21T11:21:13;5.88;;;4.95;;
15831;SDS011;8016;49.928;9.372;2022-07-21T11:23:42;5.38;;;4.22;;
15831;SDS011;8016;49.928;9.372;2022-07-21T11:26:09;5.20;;;4.03;;
15831;SDS011;8016;49.928;9.372;2022-07-21T11:28:36;4.65;;;4.25;;
15831;SDS011;8016;49.928;9.372;2022-07-21T11:31:18;4.35;;;3.95;;
15831;SDS011;8016;49.928;9.372;2022-07-21T11:33:49;4.50;;;4.10;;
15831;SDS011;8016;49.928;9.372;2022-07-21T11:36:26;4.32;;;3.90;;
15831;SDS011;8016;49.928;9.372;2022-07-21T11:39:05;4.03;;;3.72;;
15831;SDS011;8016;49.928;9.372;2022-07-21T11:41:33;4.10;;;3.60;;
15831;SDS011;8016;49.928;9.372;2022-07-21T11:43:59;4.13;;;3.55;;
15831;SDS011;8016;49.928;9.372;2022-07-21T11:46:26;4.90;;;3.72;;
15831;SDS011;8016;49.928;9.372;2022-07-21T11:49:02;4.32;;;3.92;;
15831;SDS011;8016;49.928;9.372;2022-07-21T11:51:28;4.32;;;3.80;;
15831;SDS011;8016;49.928;9.372;2022-07-21T11:53:54;4.65;;;3.53;;
15831;SDS011;8016;49.928;9.372;2022-07-21T11:56:20;4.38;;;3.95;;
15831;SDS011;8016;49.928;9.372;2022-07-21T11:58:47;4.95;;;4.20;;
15831;SDS011;8016;49.928;9.372;2022-07-21T12:01:14;4.80;;;3.63;;
15831;SDS011;8016;49.928;9.372;2022-07-21T12:03:49;6.90;;;4.00;;
15831;SDS011;8016;49.928;9.372;2022-07-21T12:06:16;4.22;;;3.83;;
15831;SDS011;8016;49.928;9.372;2022-07-21T12:08:43;4.20;;;3.80;;
15831;SDS011;8016;49.928;9.372;2022-07-21T12:11:10;3.75;;;3.45;;
15831;SDS011;8016;49.928;9.372;2022-07-21T12:13:56;5.30;;;3.53;;
15831;SDS011;8016;49.928;9.372;2022-07-21T12:16:22;4.07;;;3.42;;
15831;SDS011;8016;49.928;9.372;2022-07-21T12:18:49;4.20;;;3.90;;
15831;SDS011;8016;49.928;9.372;2022-07-21T12:21:42;5.00;;;3.75;;
15831;SDS011;8016;49.928;9.372;2022-07-21T12:24:08;5.65;;;4.00;;
15831;SDS011;8016;49.928;9.372;2022-07-21T12:26:34;3.50;;;3.20;;
15831;SDS011;8016;49.928;9.372;2022-07-21T12:29:00;6.63;;;3.75;;
15831;SDS011;8016;49.928;9.372;2022-07-21T12:31:26;4.65;;;3.97;;
15831;SDS011;8016;49.928;9.372;2022-07-21T12:33:53;3.85;;;3.55;;
15831;SDS011;8016;49.928;9.372;2022-07-21T12:36:20;4.28;;;3.70;;
15831;SDS011;8016;49.928;9.372;2022-07-21T12:38:47;4.80;;;4.40;;
15831;SDS011;8016;49.928;9.372;2022-07-21T12:41:15;4.53;;;4.13;;
15831;SDS011;8016;49.928;9.372;2022-07-21T12:43:42;5.30;;;4.80;;
15831;SDS011;8016;49.928;9.372;2022-07-21T12:48:35;4.78;;;4.38;;
15831;SDS011;8016;49.928;9.372;2022-07-21T12:53:31;4.78;;;4.25;;
15831;SDS011;8016;49.928;9.372;2022-07-21T12:55:57;6.15;;;4.32;;
15831;SDS011;8016;49.928;9.372;2022-07-21T12:58:23;4.13;;;3.80;;
15831;SDS011;8016;49.928;9.372;2022-07-21T13:00:49;4.78;;;4.38;;
15831;SDS011;8016;49.928;9.372;2022-07-21T13:03:15;4.57;;;4.18;;
15831;SDS011;8016;49.928;9.372;2022-07-21T13:05:41;5.10;;;4.57;;
15831;SDS011;8016;49.928;9.372;2022-07-21T13:08:07;4.93;;;4.47;;
15831;SDS011;8016;49.928;9.372;2022-07-21T13:10:33;4.80;;;4.10;;
15831;SDS011;8016;49.928;9.372;2022-07-21T13:12:59;4.90;;;4.50;;
15831;SDS011;8016;49.928;9.372;2022-07-21T13:15:26;4.93;;;4.53;;
15831;SDS011;8016;49.928;9.372;2022-07-21T13:17:52;5.22;;;4.10;;
15831;SDS011;8016;49.928;9.372;2022-07-21T13:20:18;4.85;;;4.40;;
15831;SDS011;8016;49.928;9.372;2022-07-21T13:22:44;4.90;;;4.50;;
15831;SDS011;8016;49.928;9.372;2022-07-21T13:25:10;4.70;;;4.30;;
15831;SDS011;8016;49.928;9.372;2022-07-21T13:27:37;5.63;;;4.80;;
15831;SDS011;8016;49.928;9.372;2022-07-21T13:30:03;6.07;;;5.28;;
15831;SDS011;8016;49.928;9.372;2022-07-21T13:32:30;4.63;;;4.22;;
15831;SDS011;8016;49.928;9.372;2022-07-21T13:34:56;4.95;;;4.45;;
15831;SDS011;8016;49.928;9.372;2022-07-21T13:37:22;4.63;;;4.22;;
15831;SDS011;8016;49.928;9.372;2022-07-21T13:39:48;4.97;;;4.47;;
15831;SDS011;8016;49.928;9.372;2022-07-21T13:42:14;4.30;;;3.90;;
15831;SDS011;8016;49.928;9.372;2022-07-21T13:44:40;5.18;;;4.68;;
15831;SDS011;8016;49.928;9.372;2022-07-21T13:47:06;5.15;;;4.65;;
15831;SDS011;8016;49.928;9.372;2022-07-21T13:49:32;5.57;;;4.43;;
15831;SDS011;8016;49.928;9.372;2022-07-21T13:51:58;6.53;;;4.63;;
15831;SDS011;8016;49.928;9.372;2022-07-21T13:54:24;4.80;;;4.40;;
15831;SDS011;8016;49.928;9.372;2022-07-21T13:56:50;6.20;;;5.15;;
15831;SDS011;8016;49.928;9.372;2022-07-21T13:59:16;5.90;;;4.85;;
15831;SDS011;8016;49.928;9.372;2022-07-21T14:01:42;5.20;;;4.70;;
15831;SDS011;8016;49.928;9.372;2022-07-21T14:04:08;7.70;;;4.80;;
15831;SDS011;8016;49.928;9.372;2022-07-21T14:06:34;4.90;;;4.50;;
15831;SDS011;8016;49.928;9.372;2022-07-21T14:09:01;4.75;;;4.30;;
15831;SDS011;8016;49.928;9.372;2022-07-21T14:11:27;7.72;;;4.95;;
15831;SDS011;8016;49.928;9.372;2022-07-21T14:13:54;6.20;;;4.50;;
15831;SDS011;8016;49.928;9.372;2022-07-21T14:16:20;6.22;;;4.43;;
15831;SDS011;8016;49.928;9.372;2022-07-21T14:18:46;7.82;;;4.60;;
15831;SDS011;8016;49.928;9.372;2022-07-21T14:21:12;5.13;;;4.70;;
15831;SDS011;8016;49.928;9.372;2022-07-21T14:23:38;5.82;;;4.90;;
15831;SDS011;8016;49.928;9.372;2022-07-21T14:26:04;4.50;;;4.18;;
15831;SDS011;8016;49.928;9.372;2022-07-21T14:28:30;6.22;;;4.25;;
15831;SDS011;8016;49.928;9.372;2022-07-21T14:30:56;4.75;;;4.32;;
15831;SDS011;8016;49.928;9.372;2022-07-21T14:33:22;7.05;;;4.80;;
15831;SDS011;8016;49.928;9.372;2022-07-21T14:35:48;7.05;;;5.45;;
15831;SDS011;8016;49.928;9.372;2022-07-21T14:38:14;4.68;;;4.28;;
15831;SDS011;8016;49.928;9.372;2022-07-21T14:40:42;5.70;;;5.25;;
15831;SDS011;8016;49.928;9.372;2022-07-21T14:43:08;6.80;;;5.20;;
15831;SDS011;8016;49.928;9.372;2022-07-21T14:45:34;5.90;;;5.30;;
15831;SDS011;8016;49.928;9.372;2022-07-21T14:48:00;6.53;;;4.38;;
15831;SDS011;8016;49.928;9.372;2022-07-21T14:50:26;5.35;;;4.88;;
15831;SDS011;8016;49.928;9.372;2022-07-21T14:52:56;5.75;;;5.28;;
15831;SDS011;8016;49.928;9.372;2022-07-21T14:55:23;5.82;;;5.32;;
15831;SDS011;8016;49.928;9.372;2022-07-21T14:57:50;7.50;;;5.43;;
15831;SDS011;8016;49.928;9.372;2022-07-21T15:00:16;6.60;;;5.32;;
15831;SDS011;8016;49.928;9.372;2022-07-21T15:02:42;5.53;;;5.03;;
15831;SDS011;8016;49.928;9.372;2022-07-21T15:05:08;8.05;;;5.85;;
15831;SDS011;8016;49.928;9.372;2022-07-21T15:07:34;6.65;;;4.68;;
15831;SDS011;8016;49.928;9.372;2022-07-21T15:10:00;5.72;;;5.20;;
15831;SDS011;8016;49.928;9.372;2022-07-21T15:12:26;5.63;;;5.13;;
15831;SDS011;8016;49.928;9.372;2022-07-21T15:14:52;5.47;;;4.97;;
15831;SDS011;8016;49.928;9.372;2022-07-21T15:17:18;6.13;;;4.95;;
15831;SDS011;8016;49.928;9.372;2022-07-21T15:19:44;6.60;;;5.60;;
15831;SDS011;8016;49.928;9.372;2022-07-21T15:22:10;5.97;;;5.43;;